Time;durP1;ratioP1;P1;durP2;ratioP2;P2;SDS_P1;SDS_P2;PMS_P1;PMS_P2;Temp;Humidity;BMP_temperature;BMP_pressure;BME280_temperature;BME280_humidity;BME280_pressure;Samples;Min_cycle;Max_cycle;Signal;HPM_P1;HPM_P2
2022/07/24 00:00:31;;;;;;;8.80;3.72;;;14.60;71.30;;;;;;4987747;28;20044;-77
2022/07/24 00:02:57;;;;;;;14.43;3.90;;;14.60;71.60;;;;;;4989487;28;20410;-71
2022/07/24 00:05:24;;;;;;;15.73;3.92;;;14.50;71.80;;;;;;4988281;28;20069;-80
2022/07/24 00:07:50;;;;;;;10.98;3.20;;;14.50;71.70;;;;;;4988556;28;20022;-79
2022/07/24 00:10:17;;;;;;;6.47;2.65;;;14.50;71.50;;;;;;4988370;28;20030;-72
2022/07/24 00:12:43;;;;;;;20.23;3.13;;;14.50;71.50;;;;;;4988365;28;20018;-79
2022/07/24 00:15:10;;;;;;;9.73;2.53;;;14.50;71.80;;;;;;4988853;28;20166;-79
2022/07/24 00:17:37;;;;;;;6.90;2.28;;;14.50;72.00;;;;;;4988073;28;20058;-79
2022/07/24 00:20:06;;;;;;;6.00;3.10;;;14.50;71.90;;;;;;4988954;28;20034;-79
2022/07/24 00:22:33;;;;;;;5.45;2.35;;;14.50;71.90;;;;;;4987166;28;20516;-78
2022/07/24 00:24:59;;;;;;;6.88;2.75;;;14.50;71.80;;;;;;4989486;28;20109;-75
2022/07/24 00:27:26;;;;;;;10.88;4.28;;;14.50;71.70;;;;;;4987247;28;20125;-78
2022/07/24 00:29:52;;;;;;;9.55;2.85;;;14.50;71.80;;;;;;4987973;28;20069;-78
2022/07/24 00:32:19;;;;;;;10.13;2.75;;;14.50;71.80;;;;;;4988190;28;20023;-78
2022/07/24 00:34:45;;;;;;;9.88;3.88;;;14.50;71.80;;;;;;4988043;28;20030;-76
2022/07/24 00:37:12;;;;;;;20.35;2.95;;;14.50;71.80;;;;;;4989358;28;20040;-77
2022/07/24 00:39:38;;;;;;;7.28;2.60;;;14.40;72.20;;;;;;4985985;28;20061;-79
2022/07/24 00:42:05;;;;;;;14.63;2.33;;;14.50;72.50;;;;;;4987967;28;20035;-78
2022/07/24 00:44:31;;;;;;;10.85;2.42;;;14.40;72.40;;;;;;4985719;28;20395;-79
2022/07/24 00:46:58;;;;;;;8.75;3.05;;;14.40;72.40;;;;;;4988760;28;20026;-79
2022/07/24 00:49:24;;;;;;;9.27;2.75;;;14.40;72.40;;;;;;4987509;28;20477;-77
2022/07/24 00:51:52;;;;;;;5.78;2.83;;;14.40;72.40;;;;;;4987620;28;20010;-79
2022/07/24 00:54:21;;;;;;;6.30;2.80;;;14.40;72.60;;;;;;4986987;28;20038;-78
2022/07/24 00:56:49;;;;;;;5.07;2.50;;;14.40;72.70;;;;;;4985689;28;20080;-79
2022/07/24 00:59:16;;;;;;;12.48;2.92;;;14.30;72.70;;;;;;4989545;28;20034;-80
2022/07/24 01:01:43;;;;;;;7.30;2.80;;;14.40;72.80;;;;;;4987183;28;20030;-79
2022/07/24 01:04:10;;;;;;;8.70;3.08;;;14.30;72.70;;;;;;4988276;28;20088;-76
2022/07/24 01:06:36;;;;;;;10.68;3.17;;;14.30;72.90;;;;;;4987511;28;20048;-77
2022/07/24 01:09:03;;;;;;;10.38;3.15;;;14.30;72.90;;;;;;4986493;28;20430;-79
2022/07/24 01:11:30;;;;;;;5.85;2.90;;;14.30;72.50;;;;;;4988862;28;20023;-80
2022/07/24 01:13:57;;;;;;;7.68;2.75;;;14.30;73.00;;;;;;4987839;28;20023;-75
2022/07/24 01:16:24;;;;;;;15.52;3.30;;;14.30;73.10;;;;;;4988539;28;20026;-77
2022/07/24 01:18:50;;;;;;;9.70;2.88;;;14.30;73.10;;;;;;4987998;28;20030;-78
2022/07/24 01:21:17;;;;;;;13.82;2.35;;;14.30;73.30;;;;;;4988261;28;20035;-77
2022/07/24 01:23:43;;;;;;;4.80;2.10;;;14.30;73.30;;;;;;4985531;28;20045;-78
2022/07/24 01:26:10;;;;;;;10.20;2.63;;;14.30;73.40;;;;;;4987265;28;20050;-77
2022/07/24 01:28:36;;;;;;;8.20;2.25;;;14.30;73.40;;;;;;4991436;28;20032;-79
2022/07/24 01:31:04;;;;;;;9.23;2.72;;;14.30;73.40;;;;;;4990820;28;20031;-74
2022/07/24 01:33:30;;;;;;;9.25;3.20;;;14.30;73.60;;;;;;4993005;28;20081;-78
2022/07/24 01:35:57;;;;;;;12.48;2.40;;;14.30;73.50;;;;;;4987288;28;20032;-75
2022/07/24 01:38:23;;;;;;;6.15;1.75;;;14.30;73.40;;;;;;4989759;28;20113;-71
2022/07/24 01:40:50;;;;;;;7.43;1.70;;;14.30;73.40;;;;;;4991002;28;20023;-76
2022/07/24 01:43:16;;;;;;;6.15;1.83;;;14.30;73.50;;;;;;4991216;28;20033;-79
2022/07/24 01:45:43;;;;;;;8.70;2.00;;;14.30;73.50;;;;;;4992098;28;20026;-79
2022/07/24 01:48:11;;;;;;;5.07;1.20;;;14.30;73.40;;;;;;4991478;28;20500;-78
2022/07/24 01:50:37;;;;;;;7.88;2.35;;;14.30;73.40;;;;;;4991831;28;20029;-79
2022/07/24 01:53:04;;;;;;;3.35;1.42;;;14.30;73.80;;;;;;4988633;28;20026;-78
2022/07/24 01:55:30;;;;;;;3.95;1.35;;;14.20;73.80;;;;;;4990476;28;20133;-71
2022/07/24 01:57:57;;;;;;;4.15;1.65;;;14.20;73.80;;;;;;4990019;28;20055;-77
2022/07/24 02:00:24;;;;;;;3.17;1.45;;;14.20;73.80;;;;;;4992100;28;20027;-79
2022/07/24 02:02:50;;;;;;;5.00;2.08;;;14.20;73.80;;;;;;4991480;28;20026;-80
2022/07/24 02:05:17;;;;;;;3.75;1.75;;;14.20;74.40;;;;;;4990395;28;20018;-77
2022/07/24 02:07:45;;;;;;;12.68;1.85;;;14.20;74.20;;;;;;4991948;28;20046;-76
2022/07/24 02:10:13;;;;;;;3.03;1.48;;;14.20;74.20;;;;;;4990583;28;20030;-77
2022/07/24 02:12:40;;;;;;;15.65;2.03;;;14.20;74.20;;;;;;4989002;28;20045;-76
2022/07/24 02:15:07;;;;;;;13.65;2.47;;;14.20;74.30;;;;;;4989580;28;20366;-75
2022/07/24 02:17:34;;;;;;;6.28;1.50;;;14.20;74.50;;;;;;4992043;28;20054;-75
2022/07/24 02:20:00;;;;;;;10.35;2.33;;;14.20;74.50;;;;;;4990428;28;20023;-79
2022/07/24 02:22:27;;;;;;;4.45;1.38;;;14.20;74.40;;;;;;4991092;28;20036;-79
2022/07/24 02:24:53;;;;;;;8.13;2.00;;;14.10;74.20;;;;;;4992291;28;20081;-82
2022/07/24 02:27:20;;;;;;;5.28;2.22;;;14.10;74.20;;;;;;4988666;28;20019;-72
2022/07/24 02:29:46;;;;;;;6.85;2.53;;;14.10;74.30;;;;;;4990242;28;20033;-77
2022/07/24 02:32:13;;;;;;;7.55;3.20;;;14.10;74.40;;;;;;4989817;28;20015;-79
2022/07/24 02:34:39;;;;;;;6.10;2.65;;;14.10;74.30;;;;;;4991390;28;20512;-77
2022/07/24 02:37:06;;;;;;;4.88;3.30;;;14.10;74.20;;;;;;4990105;28;20110;-81
2022/07/24 02:39:32;;;;;;;7.68;2.63;;;14.10;74.10;;;;;;4990975;28;20029;-84
2022/07/24 02:41:59;;;;;;;9.57;3.28;;;14.00;74.10;;;;;;4990540;28;20027;-77
2022/07/24 02:44:25;;;;;;;7.88;3.53;;;14.00;74.00;;;;;;4989974;28;20034;-75
2022/07/24 02:46:51;;;;;;;9.32;3.25;;;14.10;73.90;;;;;;4990789;28;20076;-79
2022/07/24 02:49:18;;;;;;;7.05;3.33;;;14.00;73.80;;;;;;4989749;28;20023;-79
2022/07/24 02:51:44;;;;;;;7.30;3.78;;;14.00;73.70;;;;;;4990678;28;20421;-79
2022/07/24 02:54:11;;;;;;;3.83;2.67;;;14.00;73.80;;;;;;4989676;28;20531;-81
2022/07/24 02:56:37;;;;;;;11.27;2.85;;;14.00;74.40;;;;;;4990969;28;20033;-80
2022/07/24 02:59:04;;;;;;;4.43;2.03;;;14.00;74.20;;;;;;4990336;28;20401;-80
2022/07/24 03:01:30;;;;;;;4.80;1.90;;;14.00;74.20;;;;;;4988681;28;20022;-76
2022/07/24 03:03:57;;;;;;;7.28;1.80;;;14.00;73.80;;;;;;4990667;28;20053;-72
2022/07/24 03:06:23;;;;;;;7.85;1.33;;;13.90;73.30;;;;;;4989011;28;20026;-76
2022/07/24 03:08:50;;;;;;;7.00;1.65;;;13.90;73.00;;;;;;4988958;28;20116;-76
2022/07/24 03:11:16;;;;;;;3.35;1.92;;;13.90;72.80;;;;;;4989870;28;20115;-80
2022/07/24 03:13:43;;;;;;;6.78;1.80;;;13.90;72.50;;;;;;4989941;28;20101;-79
2022/07/24 03:16:09;;;;;;;4.18;1.55;;;13.90;72.40;;;;;;4988940;28;20026;-78
2022/07/24 03:18:36;;;;;;;5.32;1.52;;;13.90;72.40;;;;;;4990305;28;20018;-75
2022/07/24 03:21:02;;;;;;;2.42;1.00;;;13.80;72.30;;;;;;4990215;28;20441;-80
2022/07/24 03:23:29;;;;;;;5.25;1.73;;;13.80;72.10;;;;;;4988938;28;20493;-77
2022/07/24 03:25:56;;;;;;;2.55;0.60;;;13.90;72.90;;;;;;4989972;28;20501;-75
2022/07/24 03:28:22;;;;;;;1.35;0.50;;;13.80;73.00;;;;;;4989061;28;20073;-77
2022/07/24 03:30:49;;;;;;;4.20;1.25;;;13.90;72.80;;;;;;4990482;28;20108;-79
2022/07/24 03:33:15;;;;;;;3.75;1.10;;;13.90;72.60;;;;;;4989212;28;20037;-81
2022/07/24 03:35:42;;;;;;;5.72;1.10;;;13.80;72.40;;;;;;4991843;28;20049;-85
2022/07/24 03:38:08;;;;;;;2.95;1.02;;;13.80;72.20;;;;;;4987516;28;20045;-88
2022/07/24 03:40:34;;;;;;;4.57;0.80;;;13.80;72.10;;;;;;4992075;28;20080;-84
2022/07/24 03:43:02;;;;;;;4.55;0.98;;;13.80;72.00;;;;;;4991989;28;20113;-84
2022/07/24 03:45:28;;;;;;;6.97;1.35;;;13.80;71.90;;;;;;4990667;28;20077;-84
2022/07/24 03:47:55;;;;;;;12.90;2.67;;;13.80;71.80;;;;;;4990599;28;20037;-75
2022/07/24 03:50:21;;;;;;;29.95;16.52;;;13.80;71.90;;;;;;4990634;28;20061;-85
2022/07/24 03:52:48;;;;;;;36.80;23.70;;;13.80;72.90;;;;;;4990028;28;20050;-86
2022/07/24 03:55:14;;;;;;;16.85;10.27;;;13.80;73.60;;;;;;4991380;28;20125;-87
2022/07/24 03:57:40;;;;;;;11.20;6.60;;;13.80;73.00;;;;;;4991037;28;20081;-86
2022/07/24 04:00:09;;;;;;;6.75;2.90;;;13.80;72.50;;;;;;4988989;28;20042;-86
2022/07/24 04:02:36;;;;;;;6.78;2.20;;;13.70;72.30;;;;;;4989809;28;20497;-85
2022/07/24 04:05:02;;;;;;;4.15;1.30;;;13.70;72.30;;;;;;4991532;28;20038;-79
2022/07/24 04:07:29;;;;;;;3.17;1.05;;;13.70;72.20;;;;;;4986851;28;20026;-81
2022/07/24 04:09:55;;;;;;;5.82;1.85;;;13.70;72.10;;;;;;4988851;28;20568;-79
2022/07/24 04:12:22;;;;;;;7.72;2.42;;;13.70;72.10;;;;;;4990653;28;20030;-80
2022/07/24 04:14:48;;;;;;;3.42;1.27;;;13.70;72.30;;;;;;4990760;28;20088;-82
2022/07/24 04:17:15;;;;;;;4.93;1.52;;;13.70;72.30;;;;;;4990533;28;20359;-84
2022/07/24 04:19:41;;;;;;;5.30;1.38;;;13.70;72.30;;;;;;4991027;28;20113;-85
2022/07/24 04:22:08;;;;;;;7.78;1.17;;;13.70;72.30;;;;;;4990721;28;20133;-79
2022/07/24 04:24:34;;;;;;;38.40;3.88;;;13.60;72.50;;;;;;4987999;28;20057;-80
2022/07/24 04:27:01;;;;;;;10.10;1.85;;;13.60;72.90;;;;;;4988006;28;20022;-81
2022/07/24 04:29:27;;;;;;;17.70;2.25;;;13.60;72.80;;;;;;4988353;28;20025;-82
2022/07/24 04:31:54;;;;;;;12.68;1.70;;;13.60;72.50;;;;;;4990095;28;20022;-77
2022/07/24 04:34:20;;;;;;;8.23;1.85;;;13.60;72.60;;;;;;4989207;28;20042;-79
2022/07/24 04:36:47;;;;;;;13.70;2.08;;;13.60;72.60;;;;;;4989954;28;20018;-80
2022/07/24 04:39:13;;;;;;;6.43;1.50;;;13.70;72.80;;;;;;4991113;28;20062;-79
2022/07/24 04:41:40;;;;;;;6.53;1.30;;;13.60;72.70;;;;;;4989476;28;20038;-87
2022/07/24 04:44:07;;;;;;;4.22;1.33;;;13.60;72.70;;;;;;4987023;28;20482;-72
2022/07/24 04:46:33;;;;;;;10.15;1.30;;;13.60;73.20;;;;;;4989331;28;20022;-80
2022/07/24 04:49:00;;;;;;;6.93;1.65;;;13.60;72.50;;;;;;4990464;28;20034;-81
2022/07/24 04:51:26;;;;;;;41.00;14.30;;;13.60;72.40;;;;;;4987229;28;20038;-78
2022/07/24 04:53:53;;;;;;;24.67;13.18;;;13.60;72.70;;;;;;4988231;28;20066;-74
2022/07/24 04:56:21;;;;;;;41.38;10.95;;;13.60;72.90;;;;;;4988102;28;20019;-78
2022/07/24 04:58:47;;;;;;;16.77;7.25;;;13.60;72.70;;;;;;4988220;28;20070;-81
2022/07/24 05:01:14;;;;;;;9.82;3.75;;;13.60;73.10;;;;;;4989153;28;20049;-78
2022/07/24 05:03:41;;;;;;;5.90;1.92;;;13.70;73.20;;;;;;4991053;28;20034;-69
2022/07/24 05:06:08;;;;;;;7.78;2.90;;;13.60;73.20;;;;;;4992784;28;20022;-77
2022/07/24 05:08:34;;;;;;;4.65;1.33;;;13.60;73.20;;;;;;4990218;28;20023;-80
2022/07/24 05:11:00;;;;;;;4.28;1.80;;;13.60;73.20;;;;;;4992487;28;20027;-73
2022/07/24 05:13:27;;;;;;;5.68;1.70;;;13.60;73.30;;;;;;4992359;28;20026;-76
2022/07/24 05:15:55;;;;;;;5.55;1.40;;;13.50;73.20;;;;;;4992609;28;20121;-79
2022/07/24 05:18:21;;;;;;;7.10;1.67;;;13.50;73.20;;;;;;4992462;28;20105;-81
2022/07/24 05:20:47;;;;;;;2.97;1.40;;;13.50;73.30;;;;;;4990961;28;20026;-80
2022/07/24 05:23:14;;;;;;;7.38;1.67;;;13.50;73.40;;;;;;4994315;28;20050;-80
2022/07/24 05:25:40;;;;;;;14.23;2.28;;;13.50;73.40;;;;;;4992526;28;20023;-78
2022/07/24 05:28:07;;;;;;;14.52;1.73;;;13.50;73.40;;;;;;4991006;28;20026;-78
2022/07/24 05:30:33;;;;;;;18.00;3.45;;;13.50;73.80;;;;;;4991955;28;20516;-86
2022/07/24 05:33:00;;;;;;;13.18;2.47;;;13.40;73.80;;;;;;4991858;28;20034;-83
2022/07/24 05:35:26;;;;;;;8.50;2.83;;;13.40;73.80;;;;;;4992718;28;20034;-73
2022/07/24 05:37:53;;;;;;;8.77;1.73;;;13.40;74.50;;;;;;4991167;28;20113;-82
2022/07/24 05:40:19;;;;;;;31.75;20.45;;;13.50;74.70;;;;;;4993302;28;20018;-76
2022/07/24 05:42:46;;;;;;;40.35;29.23;;;13.50;74.70;;;;;;4992092;28;20022;-78
2022/07/24 05:45:12;;;;;;;21.13;16.25;;;13.40;74.50;;;;;;4993298;28;20030;-76
2022/07/24 05:47:41;;;;;;;15.43;9.23;;;13.50;74.70;;;;;;4991119;28;20026;-87
2022/07/24 05:50:12;;;;;;;9.85;5.00;;;13.40;74.50;;;;;;4992352;28;20121;-84
2022/07/24 05:52:40;;;;;;;7.72;3.15;;;13.40;74.40;;;;;;4987973;28;20116;-77
2022/07/24 05:55:08;;;;;;;6.97;2.03;;;13.50;74.40;;;;;;4989553;28;20030;-75
2022/07/24 05:57:34;;;;;;;12.63;2.53;;;13.40;74.10;;;;;;4993031;28;20509;-80
2022/07/24 06:00:01;;;;;;;7.80;2.40;;;13.40;74.20;;;;;;4990690;28;20023;-76
2022/07/24 06:02:28;;;;;;;6.15;1.63;;;13.40;74.30;;;;;;4992097;28;20057;-75
2022/07/24 06:04:54;;;;;;;7.57;2.78;;;13.40;74.30;;;;;;4990343;28;20041;-73
2022/07/24 06:07:21;;;;;;;4.93;2.45;;;13.40;74.40;;;;;;4991376;28;20036;-73
2022/07/24 06:09:47;;;;;;;6.47;1.85;;;13.40;74.40;;;;;;4991087;28;20101;-73
2022/07/24 06:12:14;;;;;;;8.90;2.95;;;13.40;74.30;;;;;;4990888;28;20022;-74
2022/07/24 06:14:40;;;;;;;6.03;2.20;;;13.40;74.40;;;;;;4987341;28;20045;-75
2022/07/24 06:17:07;;;;;;;7.53;1.88;;;13.40;74.40;;;;;;4990311;28;20504;-71
2022/07/24 06:19:33;;;;;;;10.05;1.65;;;13.30;74.50;;;;;;4991703;28;20030;-75
2022/07/24 06:21:59;;;;;;;10.48;1.98;;;13.30;74.80;;;;;;4990538;28;20043;-72
2022/07/24 06:24:26;;;;;;;5.00;1.60;;;13.40;75.60;;;;;;4991633;28;20044;-73
2022/07/24 06:26:52;;;;;;;9.90;1.60;;;13.50;75.40;;;;;;4989911;28;20520;-73
2022/07/24 06:29:19;;;;;;;6.78;2.00;;;13.40;75.30;;;;;;4990114;28;20021;-78
2022/07/24 06:31:45;;;;;;;10.57;2.53;;;13.40;75.40;;;;;;4992172;28;20026;-76
2022/07/24 06:34:12;;;;;;;13.02;2.83;;;13.50;75.50;;;;;;4989954;28;20045;-75
2022/07/24 06:36:38;;;;;;;20.48;13.23;;;13.50;75.50;;;;;;4986671;28;20027;-73
2022/07/24 06:39:05;;;;;;;14.25;9.65;;;13.40;75.50;;;;;;4990232;28;20022;-82
2022/07/24 06:41:31;;;;;;;12.45;5.72;;;13.40;75.80;;;;;;4992030;28;20394;-77
2022/07/24 06:43:59;;;;;;;10.70;3.90;;;13.40;75.90;;;;;;4989839;28;20029;-76
2022/07/24 06:46:26;;;;;;;9.18;2.67;;;13.40;76.00;;;;;;4990359;28;20030;-76
2022/07/24 06:48:53;;;;;;;6.13;2.90;;;13.40;76.20;;;;;;4990247;28;20041;-77
2022/07/24 06:51:19;;;;;;;7.85;2.58;;;13.40;76.80;;;;;;4989336;28;20018;-77
2022/07/24 06:53:46;;;;;;;9.30;2.88;;;13.50;76.20;;;;;;4990733;28;20114;-78
2022/07/24 06:56:13;;;;;;;10.82;2.60;;;13.50;76.30;;;;;;4989704;28;20528;-77
2022/07/24 06:58:39;;;;;;;5.07;1.95;;;13.50;76.40;;;;;;4991019;28;20057;-78
2022/07/24 07:01:06;;;;;;;7.72;2.40;;;13.50;76.50;;;;;;4989289;28;20437;-78
2022/07/24 07:03:33;;;;;;;8.00;2.20;;;13.50;76.70;;;;;;4990272;28;20026;-79
2022/07/24 07:05:59;;;;;;;8.70;2.47;;;13.50;77.00;;;;;;4990952;28;20104;-78
2022/07/24 07:08:26;;;;;;;7.35;1.95;;;13.50;77.00;;;;;;4989210;28;20117;-77
2022/07/24 07:10:52;;;;;;;6.07;2.50;;;13.50;77.10;;;;;;4991187;28;20058;-75
2022/07/24 07:13:18;;;;;;;4.85;2.03;;;13.50;77.20;;;;;;4989216;28;20555;-75
2022/07/24 07:15:45;;;;;;;4.82;2.00;;;13.60;77.20;;;;;;4990291;28;20495;-77
2022/07/24 07:18:11;;;;;;;10.77;2.20;;;13.60;77.20;;;;;;4989697;28;20026;-78
2022/07/24 07:20:38;;;;;;;6.38;2.33;;;13.60;77.30;;;;;;4988003;28;20378;-77
2022/07/24 07:23:05;;;;;;;6.53;2.28;;;13.60;77.60;;;;;;4989425;28;20050;-78
2022/07/24 07:25:31;;;;;;;6.70;2.17;;;13.70;77.90;;;;;;4989990;28;20109;-79
2022/07/24 07:27:58;;;;;;;10.20;2.40;;;13.70;78.30;;;;;;4989898;28;20029;-75
2022/07/24 07:30:24;;;;;;;8.68;2.22;;;13.70;78.60;;;;;;4989326;28;20019;-80
2022/07/24 07:32:51;;;;;;;4.95;1.42;;;13.80;79.00;;;;;;4989926;28;20093;-72
2022/07/24 07:35:17;;;;;;;7.07;2.17;;;13.80;78.90;;;;;;4989109;28;20493;-78
2022/07/24 07:37:47;;;;;;;44.05;4.57;;;13.90;78.80;;;;;;4990618;28;20033;-81
2022/07/24 07:40:13;;;;;;;53.75;7.72;;;13.90;79.00;;;;;;4989591;28;20526;-78
2022/07/24 07:42:40;;;;;;;45.83;7.38;;;13.90;79.00;;;;;;4990701;28;20053;-74
2022/07/24 07:45:06;;;;;;;31.05;5.53;;;14.00;78.90;;;;;;4990068;28;20030;-70
2022/07/24 07:47:37;;;;;;;18.55;3.20;;;14.00;78.90;;;;;;4989352;28;20036;-70
2022/07/24 07:50:04;;;;;;;8.88;2.17;;;14.00;78.80;;;;;;4990064;28;20037;-71
2022/07/24 07:52:31;;;;;;;6.13;1.80;;;14.10;78.20;;;;;;4988562;28;20571;-72
2022/07/24 07:54:58;;;;;;;7.43;2.13;;;14.10;77.70;;;;;;4988684;28;20158;-72
2022/07/24 07:57:24;;;;;;;8.68;2.50;;;14.10;77.30;;;;;;4988238;28;20019;-71
2022/07/24 07:59:51;;;;;;;8.32;2.88;;;14.20;77.70;;;;;;4989867;28;20018;-71
2022/07/24 08:02:17;;;;;;;6.50;3.22;;;14.20;77.80;;;;;;4988466;28;20081;-73
2022/07/24 08:04:44;;;;;;;7.25;1.67;;;14.20;77.80;;;;;;4988514;28;20022;-73
2022/07/24 08:07:10;;;;;;;7.70;2.08;;;14.20;77.90;;;;;;4989412;28;20035;-67
2022/07/24 08:09:37;;;;;;;15.23;2.88;;;14.30;77.70;;;;;;4988714;28;20028;-76
2022/07/24 08:12:04;;;;;;;12.75;3.15;;;14.30;77.80;;;;;;4989788;28;20441;-91
2022/07/24 08:14:32;;;;;;;8.63;1.83;;;14.30;77.60;;;;;;4989454;28;20535;-78
2022/07/24 08:16:58;;;;;;;9.18;2.35;;;14.40;77.40;;;;;;4988647;28;20030;-71
2022/07/24 08:19:25;;;;;;;6.60;1.30;;;14.40;77.30;;;;;;4987384;28;20508;-78
2022/07/24 08:21:51;;;;;;;4.07;1.70;;;14.50;77.30;;;;;;4989180;28;20030;-66
2022/07/24 08:24:20;;;;;;;12.13;2.33;;;14.40;77.20;;;;;;4989499;28;20030;-69
2022/07/24 08:26:50;;;;;;;4.47;2.20;;;14.50;77.20;;;;;;4988829;28;20057;-68
2022/07/24 08:29:17;;;;;;;2.95;1.60;;;14.50;77.00;;;;;;4988917;28;20038;-68
2022/07/24 08:31:44;;;;;;;4.20;1.40;;;14.50;76.90;;;;;;4987021;28;20102;-71
2022/07/24 08:34:10;;;;;;;12.45;3.28;;;14.50;76.80;;;;;;4989033;28;20034;-71
2022/07/24 08:36:38;;;;;;;8.10;2.35;;;14.60;77.00;;;;;;4988006;28;20031;-69
2022/07/24 08:39:04;;;;;;;11.32;2.67;;;14.60;76.80;;;;;;4988992;28;20030;-70
2022/07/24 08:41:35;;;;;;;11.43;2.25;;;14.70;76.50;;;;;;4986940;28;20026;-68
2022/07/24 08:44:05;;;;;;;9.73;2.13;;;14.70;76.20;;;;;;4988499;28;20098;-69
2022/07/24 08:46:32;;;;;;;6.60;1.63;;;14.80;76.00;;;;;;4990082;28;20375;-70
2022/07/24 08:48:59;;;;;;;6.10;2.55;;;14.80;75.90;;;;;;4986835;28;20077;-69
2022/07/24 08:51:34;;;;;;;11.95;3.60;;;14.90;75.90;;;;;;4988014;28;20038;-72
2022/07/24 08:54:02;;;;;;;7.80;3.45;;;14.90;75.80;;;;;;4987730;28;20583;-72
2022/07/24 08:56:29;;;;;;;8.57;3.65;;;15.00;75.70;;;;;;4988748;28;20105;-71
2022/07/24 08:58:56;;;;;;;9.93;4.57;;;15.00;75.20;;;;;;4988324;28;20486;-68
2022/07/24 09:01:22;;;;;;;10.23;5.63;;;15.10;75.20;;;;;;4986460;28;20023;-74
2022/07/24 09:03:49;;;;;;;11.93;4.68;;;15.10;74.60;;;;;;4988977;28;20026;-69
2022/07/24 09:06:16;;;;;;;15.05;7.72;;;15.20;74.10;;;;;;4988459;28;20019;-69
2022/07/24 09:08:56;;;;;;;13.63;7.40;;;15.10;73.50;;;;;;4988365;28;20026;-69
2022/07/24 09:11:22;;;;;;;23.30;7.20;;;15.20;73.30;;;;;;4987358;28;20026;-70
2022/07/24 09:16:43;;;;;;;19.42;8.65;;;15.30;73.20;;;;;;4989224;28;20557;-69
2022/07/24 09:19:10;;;;;;;13.30;5.80;;;15.30;72.90;;;;;;4987872;28;20026;-72
2022/07/24 09:21:40;;;;;;;8.48;5.05;;;15.30;72.60;;;;;;4989215;28;20027;-67
2022/07/24 09:24:15;;;;;;;12.75;5.35;;;15.40;72.10;;;;;;4987512;28;20033;-68
2022/07/24 09:26:49;;;;;;;14.27;6.45;;;15.40;71.90;;;;;;4984286;28;20145;-75
2022/07/24 09:29:18;;;;;;;12.57;5.32;;;15.50;71.80;;;;;;4988266;28;20038;-68
2022/07/24 09:32:02;;;;;;;7.93;3.97;;;15.50;71.60;;;;;;4987338;28;20026;-68
2022/07/24 09:34:37;;;;;;;29.75;8.75;;;15.60;71.50;;;;;;4987753;28;20120;-68
2022/07/24 09:37:08;;;;;;;7.00;4.68;;;15.60;71.00;;;;;;4987438;28;20049;-69
2022/07/24 09:39:57;;;;;;;12.52;4.53;;;15.70;70.90;;;;;;4988667;28;20444;-72
2022/07/24 09:42:30;;;;;;;18.80;10.85;;;15.70;70.80;;;;;;4987405;28;20037;-74
2022/07/24 09:44:59;;;;;;;11.95;6.75;;;15.80;70.10;;;;;;4987448;28;20425;-69
2022/07/24 09:47:31;;;;;;;17.45;6.35;;;15.80;70.50;;;;;;4985775;28;20401;-69
2022/07/24 09:50:12;;;;;;;9.43;3.97;;;15.90;69.30;;;;;;4989457;28;20093;-71
2022/07/24 09:52:43;;;;;;;6.82;3.13;;;15.90;69.20;;;;;;4992402;28;20019;-69
2022/07/24 09:55:24;;;;;;;8.75;2.78;;;16.00;69.10;;;;;;4991871;28;20129;-69
2022/07/24 09:57:51;;;;;;;4.60;1.88;;;16.00;68.50;;;;;;4990622;28;20021;-72
2022/07/24 10:00:18;;;;;;;5.57;2.97;;;16.10;68.10;;;;;;4992308;28;20101;-68
2022/07/24 10:02:45;;;;;;;12.40;3.63;;;16.10;67.20;;;;;;4987378;28;20450;-69
2022/07/24 10:05:13;;;;;;;7.63;3.65;;;16.10;67.10;;;;;;4991590;28;20022;-70
2022/07/24 10:07:40;;;;;;;22.77;12.23;;;16.20;66.90;;;;;;4990309;28;20026;-75
2022/07/24 10:10:07;;;;;;;22.52;11.52;;;16.20;66.10;;;;;;4991372;28;20085;-69
2022/07/24 10:12:34;;;;;;;14.57;8.25;;;16.30;66.00;;;;;;4991458;28;20536;-69
2022/07/24 10:15:02;;;;;;;14.80;9.60;;;16.30;65.50;;;;;;4987706;28;20041;-68
2022/07/24 10:17:54;;;;;;;14.73;7.95;;;16.40;65.20;;;;;;4991675;28;20022;-68
2022/07/24 10:20:44;;;;;;;12.32;6.22;;;16.50;64.90;;;;;;4989013;28;20023;-68
2022/07/24 10:23:25;;;;;;;9.70;5.10;;;16.50;64.60;;;;;;4990503;28;20035;-69
2022/07/24 10:26:08;;;;;;;10.23;7.28;;;16.50;64.00;;;;;;4990121;28;20643;-68
2022/07/24 10:28:42;;;;;;;10.25;6.65;;;16.60;63.30;;;;;;4989827;28;20101;-70
2022/07/24 10:31:11;;;;;;;9.60;5.80;;;16.60;63.20;;;;;;4991640;28;20046;-68
2022/07/24 10:33:40;;;;;;;18.75;11.57;;;16.60;62.90;;;;;;4990344;28;20502;-69
2022/07/24 10:36:29;;;;;;;15.38;9.18;;;16.70;62.40;;;;;;4991129;28;20485;-68
2022/07/24 10:39:09;;;;;;;15.88;7.93;;;16.80;62.50;;;;;;4988689;28;20026;-72
2022/07/24 10:41:35;;;;;;;19.45;11.55;;;16.80;62.20;;;;;;4989680;28;20351;-70
2022/07/24 10:44:20;;;;;;;13.93;7.50;;;16.90;62.10;;;;;;4990778;28;20081;-69
2022/07/24 10:47:03;;;;;;;19.85;8.88;;;16.90;61.40;;;;;;4989589;28;20117;-71
2022/07/24 10:49:43;;;;;;;15.50;6.28;;;16.90;61.30;;;;;;4989863;28;20030;-72
2022/07/24 10:52:31;;;;;;;9.32;5.47;;;17.00;61.20;;;;;;4990705;28;20034;-67
2022/07/24 10:55:26;;;;;;;7.28;3.58;;;17.10;60.50;;;;;;4987813;28;20397;-68
2022/07/24 10:58:09;;;;;;;10.13;3.20;;;17.20;60.50;;;;;;4987004;28;20018;-68
2022/07/24 11:00:47;;;;;;;6.45;2.72;;;17.30;60.90;;;;;;4990137;28;20109;-73
2022/07/24 11:03:21;;;;;;;9.43;2.60;;;17.30;60.30;;;;;;4988556;28;20037;-67
2022/07/24 11:06:07;;;;;;;3.88;1.75;;;17.40;60.00;;;;;;4991479;28;20108;-69
2022/07/24 11:08:38;;;;;;;3.97;2.42;;;17.50;59.90;;;;;;4989888;28;20030;-73
2022/07/24 11:11:10;;;;;;;7.82;2.20;;;17.50;59.70;;;;;;4990130;28;20034;-69
2022/07/24 11:13:37;;;;;;;4.03;1.75;;;17.60;59.50;;;;;;4990815;28;20030;-70
2022/07/24 11:16:12;;;;;;;8.30;5.57;;;17.70;58.70;;;;;;4989896;28;20093;-70
2022/07/24 11:19:02;;;;;;;17.27;7.57;;;17.70;58.10;;;;;;4989993;28;20354;-73
2022/07/24 11:21:43;;;;;;;9.43;3.67;;;17.80;57.90;;;;;;4989421;28;20019;-72
2022/07/24 11:26:53;;;;;;;6.35;2.60;;;17.90;57.80;;;;;;4985803;28;20405;-69
2022/07/24 11:29:34;;;;;;;4.50;2.38;;;17.90;57.80;;;;;;4983494;28;20045;-69
2022/07/24 11:32:10;;;;;;;5.55;2.42;;;18.00;57.10;;;;;;4989173;28;20035;-70
2022/07/24 11:34:38;;;;;;;3.20;1.63;;;18.00;56.70;;;;;;4986341;28;20042;-70
2022/07/24 11:37:06;;;;;;;3.70;1.05;;;18.00;56.60;;;;;;4989613;28;20054;-68
2022/07/24 11:39:38;;;;;;;3.85;1.05;;;18.10;56.50;;;;;;4989561;28;20030;-68
2022/07/24 11:42:11;;;;;;;10.88;3.28;;;18.10;56.60;;;;;;4986927;28;20034;-69
2022/07/24 11:44:40;;;;;;;5.78;2.05;;;18.10;56.80;;;;;;4990171;28;20038;-71
2022/07/24 11:47:13;;;;;;;7.28;2.10;;;18.20;57.30;;;;;;4988183;28;20041;-78
2022/07/24 11:49:45;;;;;;;4.93;1.00;;;18.20;57.50;;;;;;4990043;28;20022;-69
2022/07/24 11:52:27;;;;;;;4.13;1.83;;;18.20;57.00;;;;;;4989218;28;20497;-78
2022/07/24 11:54:58;;;;;;;2.05;1.13;;;18.30;56.40;;;;;;4987082;28;20473;-74
2022/07/24 11:57:30;;;;;;;2.88;1.55;;;18.30;56.40;;;;;;4989155;28;20077;-70
2022/07/24 11:59:57;;;;;;;3.13;1.23;;;18.30;56.20;;;;;;4988424;28;20029;-70
2022/07/24 12:02:24;;;;;;;10.07;2.15;;;18.40;55.00;;;;;;4988386;28;20068;-77
2022/07/24 12:04:51;;;;;;;17.13;2.10;;;18.40;54.90;;;;;;4987679;28;20018;-77
2022/07/24 12:07:21;;;;;;;9.15;2.38;;;18.50;55.40;;;;;;4989829;28;20480;-72
2022/07/24 12:09:59;;;;;;;3.63;1.95;;;18.50;56.00;;;;;;4988293;28;20024;-74
2022/07/24 12:12:31;;;;;;;7.13;1.38;;;18.60;56.30;;;;;;4987701;28;20116;-69
2022/07/24 12:15:08;;;;;;;3.33;1.67;;;18.60;55.60;;;;;;4989392;28;20087;-76
2022/07/24 12:18:07;;;;;;;6.90;1.90;;;18.70;54.90;;;;;;4989337;28;20026;-69
2022/07/24 12:20:44;;;;;;;3.47;1.58;;;18.80;54.60;;;;;;4988041;28;20055;-71
2022/07/24 12:23:12;;;;;;;5.13;1.75;;;18.80;53.90;;;;;;4988450;28;20078;-70
2022/07/24 12:25:40;;;;;;;4.80;1.50;;;18.80;53.40;;;;;;4984824;28;20065;-76
2022/07/24 12:28:18;;;;;;;10.25;2.65;;;18.90;53.30;;;;;;4989673;28;20030;-72
2022/07/24 12:30:53;;;;;;;3.80;2.50;;;18.90;52.90;;;;;;4987397;28;20540;-71
2022/07/24 12:33:24;;;;;;;2.72;1.50;;;18.90;52.80;;;;;;4987482;28;20022;-70
2022/07/24 12:35:59;;;;;;;10.07;2.28;;;18.90;52.70;;;;;;4987894;28;20049;-72
2022/07/24 12:38:33;;;;;;;;;;;19.00;52.80;;;;;;4987593;28;20478;-77
2022/07/24 12:41:11;;;;;;;23.73;10.70;;;19.00;54.10;;;;;;4987096;28;20373;-69
2022/07/24 12:43:59;;;;;;;24.13;11.70;;;19.10;53.80;;;;;;4988615;28;20077;-69
2022/07/24 12:46:36;;;;;;;8.32;4.97;;;19.20;53.10;;;;;;4987880;28;20490;-69
2022/07/24 12:49:11;;;;;;;13.18;4.10;;;19.30;50.90;;;;;;4987223;28;20022;-76
2022/07/24 12:52:20;;;;;;;14.57;2.95;;;19.50;50.60;;;;;;4987737;28;20422;-76
2022/07/24 12:54:47;;;;;;;9.45;3.72;;;19.60;52.20;;;;;;4996627;28;20539;-74
2022/07/24 12:57:15;;;;;;;10.25;4.63;;;19.50;52.90;;;;;;4989308;28;20034;-69